aviador You're here:

WBKS Decoded Metar

SANDAKAN/KALIMAN in _UNIDENTIFIED
Report Time2017-09-26 03:00:00
UTC Time2017-09-26 03:35:28
Flight Rules vfr VFR
Wind170° at 03 kt
W.Decomp.*RWY 08: 3.0 kt RCW
W.Rank170° ranks 23
Current wind is below 170° avg. (3.4)
Visibility9999 m
Phenomena:N/A
Clouds:Few 018 Hf
Broken 300 Hf
Expected CloudBase > 4,000 ft AGL from Temp-Dew spread
Ceiling30,000 ft
Temp32°C (ISA +17)
Dew Point22°C (55% RH)
Heat Index35.6°C
QNH1010 hPa
Density Alt2,441 ft
Elevation43 ft
Report Wrong Elevation
Raw Report
METAR WBKS 260300Z 17003KT 110V230 9999 FEW018 BKN300 32/22 Q1010=

Extra information for WBKS:More info

Metar Taf Metar & Taf Last 4 Metars F.Rules Stats Wind Profile Meteogram Temp Stats Airport Information Weather charts Add Link Nearby VenuesMetar ALERT Operation Metar Decoded Social comments